Time;durP1;ratioP1;P1;durP2;ratioP2;P2;SDS_P1;SDS_P2;PMS_P1;PMS_P2;Temp;Humidity;BMP_temperature;BMP_pressure;BME280_temperature;BME280_humidity;BME280_pressure;Samples;Min_cycle;Max_cycle;Signal;HPM_P1;HPM_P2
2022/05/18 00:01:42;;;;;;;2.87;2.67;;;20.10;30.00;;;;;;10378616;28;20309;-78
2022/05/18 00:06:45;;;;;;;3.97;3.67;;;20.00;30.00;;;;;;10377620;28;20252;-78
2022/05/18 00:11:50;;;;;;;3.90;3.53;;;20.00;30.20;;;;;;10376960;28;20269;-79
2022/05/18 00:16:53;;;;;;;3.97;3.50;;;19.90;30.30;;;;;;10376859;28;20321;-78
2022/05/18 00:21:57;;;;;;;3.80;3.50;;;19.80;30.00;;;;;;10376300;28;20300;-79
2022/05/18 00:27:03;;;;;;;3.80;3.50;;;19.80;30.20;;;;;;10375096;28;21410;-78
2022/05/18 00:32:07;;;;;;;4.60;3.70;;;19.70;30.50;;;;;;10374152;28;20226;-79
2022/05/18 00:37:10;;;;;;;3.90;3.60;;;19.60;30.30;;;;;;10374692;28;20285;-79
2022/05/18 00:42:26;;;;;;;4.30;3.90;;;19.60;30.40;;;;;;10378270;28;20237;-78
2022/05/18 00:47:30;;;;;;;3.80;3.50;;;19.60;31.50;;;;;;10363131;28;20249;-78
2022/05/18 00:52:37;;;;;;;4.37;4.07;;;19.50;30.50;;;;;;10374694;28;20258;-79
2022/05/18 00:57:48;;;;;;;3.77;3.47;;;19.40;31.00;;;;;;10375853;28;20272;-79
2022/05/18 01:02:57;;;;;;;4.03;3.63;;;19.40;31.50;;;;;;10376037;28;20758;-79
2022/05/18 01:08:00;;;;;;;3.90;3.60;;;19.30;31.20;;;;;;10375284;28;20238;-79
2022/05/18 01:13:05;;;;;;;3.80;3.50;;;19.30;31.00;;;;;;10374934;28;20297;-79
2022/05/18 01:18:08;;;;;;;3.70;3.30;;;19.20;31.20;;;;;;10375269;28;20783;-79
2022/05/18 01:23:36;;;;;;;3.90;3.60;;;19.20;30.80;;;;;;10374258;28;20723;-79
2022/05/18 01:28:49;;;;;;;3.23;2.97;;;19.10;31.60;;;;;;10352127;28;20223;-79
2022/05/18 01:33:52;;;;;;;3.77;2.97;;;19.00;31.30;;;;;;10366431;28;20234;-78
2022/05/18 01:38:56;;;;;;;3.77;3.20;;;18.80;30.90;;;;;;10363345;28;20235;-79
2022/05/18 01:44:02;;;;;;;4.50;3.17;;;18.80;31.00;;;;;;10367330;28;20237;-77
2022/05/18 01:49:05;;;;;;;4.13;3.47;;;18.70;31.60;;;;;;10360180;28;20222;-78
2022/05/18 01:54:09;;;;;;;3.90;3.60;;;18.60;31.10;;;;;;10357361;28;20333;-78
2022/05/18 01:59:13;;;;;;;3.87;3.57;;;18.50;31.20;;;;;;10374731;28;20602;-78
2022/05/18 02:04:18;;;;;;;4.23;3.67;;;18.50;32.10;;;;;;10350957;28;20232;-79
2022/05/18 02:09:21;;;;;;;4.17;3.77;;;18.40;31.90;;;;;;10370947;28;20229;-78
2022/05/18 02:14:26;;;;;;;4.20;3.90;;;18.30;31.80;;;;;;10374584;28;20591;-78
2022/05/18 02:19:31;;;;;;;4.20;3.83;;;18.10;32.40;;;;;;10376287;28;20282;-78
2022/05/18 02:24:35;;;;;;;4.13;3.73;;;18.00;32.20;;;;;;10376729;28;20338;-78
2022/05/18 02:29:42;;;;;;;4.43;4.13;;;17.90;32.40;;;;;;10365154;28;20245;-79
2022/05/18 02:34:45;;;;;;;4.10;3.80;;;17.80;32.80;;;;;;10375596;28;20234;-78
2022/05/18 02:39:49;;;;;;;3.97;3.30;;;17.80;32.60;;;;;;10373519;28;20254;-78
2022/05/18 02:44:53;;;;;;;2.97;2.77;;;17.80;32.60;;;;;;10372499;28;20241;-77
2022/05/18 02:49:56;;;;;;;4.80;3.90;;;17.80;32.90;;;;;;10373628;28;20232;-78
2022/05/18 03:00:29;;;;;;;4.37;3.97;;;17.70;34.40;;;;;;10367014;28;20345;-78
2022/05/18 03:05:33;;;;;;;4.00;3.70;;;17.60;33.50;;;;;;10372012;28;20276;-78
2022/05/18 03:10:37;;;;;;;4.33;3.90;;;17.60;33.60;;;;;;10374676;28;20232;-78
2022/05/18 03:15:49;;;;;;;4.03;3.63;;;17.50;33.20;;;;;;10374664;28;20218;-78
2022/05/18 03:26:15;;;;;;;3.80;3.50;;;17.50;33.40;;;;;;10369752;28;20234;-78
2022/05/18 03:31:20;;;;;;;3.60;3.30;;;17.50;33.80;;;;;;10369708;28;20225;-78
2022/05/18 03:36:26;;;;;;;4.90;3.97;;;17.50;34.10;;;;;;10372898;28;20253;-78
2022/05/18 03:41:31;;;;;;;4.87;4.17;;;17.50;34.40;;;;;;10372858;28;20230;-78
2022/05/18 03:46:35;;;;;;;3.87;3.67;;;17.40;33.90;;;;;;10372613;28;20230;-78
2022/05/18 03:51:39;;;;;;;4.50;3.80;;;17.40;34.40;;;;;;10375310;28;20241;-78
2022/05/18 03:56:42;;;;;;;3.97;3.63;;;17.40;33.90;;;;;;10373178;28;20235;-78
2022/05/18 04:01:47;;;;;;;5.50;4.20;;;17.40;34.20;;;;;;10356409;28;20742;-78
2022/05/18 04:06:50;;;;;;;4.17;3.77;;;17.40;34.20;;;;;;10357313;28;20726;-78
2022/05/18 04:11:53;;;;;;;4.77;3.63;;;17.30;34.10;;;;;;10371756;28;20623;-77
2022/05/18 04:17:07;;;;;;;3.73;3.43;;;17.30;34.10;;;;;;10373606;28;20250;-78
2022/05/18 04:22:19;;;;;;;4.13;3.73;;;17.20;34.80;;;;;;10373693;28;20226;-78
2022/05/18 04:27:22;;;;;;;3.97;3.67;;;17.20;35.00;;;;;;10369487;28;20613;-78
2022/05/18 04:32:27;;;;;;;4.63;4.23;;;17.20;34.00;;;;;;10365880;28;20285;-78
2022/05/18 04:37:30;;;;;;;4.30;4.00;;;17.20;34.50;;;;;;10363752;28;20236;-78
2022/05/18 04:42:33;;;;;;;4.47;4.07;;;17.20;34.10;;;;;;10355226;28;20226;-76
2022/05/18 04:47:38;;;;;;;4.80;4.50;;;17.30;34.40;;;;;;10356326;28;20227;-76
2022/05/18 04:52:42;;;;;;;4.50;4.20;;;17.30;35.40;;;;;;10358928;28;20237;-76
2022/05/18 04:57:45;;;;;;;4.87;4.47;;;17.30;35.10;;;;;;10347656;28;20862;-76
2022/05/18 05:02:55;;;;;;;5.20;4.70;;;17.30;35.20;;;;;;10359593;28;20725;-76
2022/05/18 05:07:59;;;;;;;4.53;4.13;;;17.40;36.20;;;;;;10353930;28;20302;-75
2022/05/18 05:13:03;;;;;;;5.13;4.50;;;17.40;35.50;;;;;;10352172;28;20691;-75
2022/05/18 05:18:08;;;;;;;5.73;5.23;;;17.50;36.70;;;;;;10337179;28;20223;-76
2022/05/18 05:23:11;;;;;;;5.87;5.40;;;17.70;37.10;;;;;;10348970;28;20241;-75
2022/05/18 05:28:14;;;;;;;5.40;4.90;;;17.80;36.20;;;;;;10348597;28;20226;-75
2022/05/18 05:33:19;;;;;;;6.23;5.73;;;17.90;36.10;;;;;;10355052;28;20318;-75
2022/05/18 05:38:22;;;;;;;6.20;5.63;;;17.90;36.80;;;;;;10353291;28;21006;-75
2022/05/18 05:43:25;;;;;;;6.20;5.70;;;18.00;36.30;;;;;;10353061;28;20237;-76
2022/05/18 05:48:31;;;;;;;6.33;5.83;;;18.10;36.50;;;;;;10357192;28;20226;-76
2022/05/18 05:53:34;;;;;;;6.63;5.90;;;18.10;37.50;;;;;;10355223;28;20238;-75
2022/05/18 05:58:38;;;;;;;6.50;5.93;;;18.20;36.70;;;;;;10359454;28;20225;-75
2022/05/18 06:03:43;;;;;;;6.50;6.00;;;18.30;37.20;;;;;;10362218;28;20878;-75
2022/05/18 06:08:47;;;;;;;6.73;6.13;;;18.40;37.70;;;;;;10357775;28;20595;-75
2022/05/18 06:13:50;;;;;;;6.77;6.13;;;18.50;37.30;;;;;;10365266;28;20573;-76
2022/05/18 06:18:55;;;;;;;7.13;6.37;;;18.60;37.50;;;;;;10369333;28;20228;-76
2022/05/18 06:23:58;;;;;;;6.57;6.07;;;18.70;38.20;;;;;;10367306;28;20233;-77
2022/05/18 06:29:01;;;;;;;7.53;6.80;;;18.90;37.90;;;;;;10359322;28;20233;-76
2022/05/18 06:34:06;;;;;;;7.10;6.40;;;19.00;38.30;;;;;;10365444;28;20230;-75
2022/05/18 06:39:10;;;;;;;6.37;5.77;;;19.20;39.50;;;;;;10368640;28;20771;-76
2022/05/18 06:44:13;;;;;;;6.87;6.37;;;19.30;38.00;;;;;;10363639;28;20722;-75
2022/05/18 06:49:19;;;;;;;6.70;6.10;;;19.50;38.10;;;;;;10361227;28;20226;-76
2022/05/18 06:54:22;;;;;;;6.50;6.00;;;19.60;38.30;;;;;;10348193;28;20774;-77
2022/05/18 06:59:45;;;;;;;6.40;5.90;;;19.80;38.00;;;;;;10362482;28;20222;-76
2022/05/18 07:04:50;;;;;;;6.50;5.97;;;20.00;37.80;;;;;;10352365;28;20226;-76
2022/05/18 07:09:54;;;;;;;6.27;5.70;;;20.10;38.10;;;;;;10348699;28;20235;-76
2022/05/18 07:14:58;;;;;;;6.20;5.73;;;20.30;38.10;;;;;;10357146;28;20893;-76
2022/05/18 07:20:03;;;;;;;6.30;5.80;;;20.40;37.60;;;;;;10350618;28;20674;-76
2022/05/18 07:25:07;;;;;;;5.90;5.50;;;20.60;37.80;;;;;;10356731;28;20234;-77
2022/05/18 07:30:13;;;;;;;6.43;5.90;;;20.80;37.40;;;;;;10355949;28;20233;-76
2022/05/18 07:35:23;;;;;;;6.23;5.63;;;21.00;37.40;;;;;;10361086;28;20230;-77
2022/05/18 07:40:28;;;;;;;6.40;5.70;;;21.20;37.60;;;;;;10354262;28;20571;-76
2022/05/18 07:45:33;;;;;;;6.00;5.43;;;21.40;37.70;;;;;;10347520;28;20231;-74
2022/05/18 07:50:38;;;;;;;5.67;5.27;;;21.60;37.90;;;;;;10345932;28;20236;-74
2022/05/18 07:55:41;;;;;;;5.50;5.10;;;21.80;37.20;;;;;;10360026;28;20242;-75
2022/05/18 08:00:45;;;;;;;5.90;5.40;;;22.00;37.10;;;;;;10359975;28;20230;-75
2022/05/18 08:05:50;;;;;;;5.57;5.13;;;22.20;37.00;;;;;;10358312;28;20265;-75
2022/05/18 08:16:14;;;;;;;6.40;5.80;;;22.60;36.70;;;;;;10358901;28;20229;-74
2022/05/18 08:21:19;;;;;;;5.13;4.83;;;22.80;36.40;;;;;;10359557;28;20317;-74
2022/05/18 08:26:22;;;;;;;5.80;5.37;;;23.10;36.20;;;;;;10359256;28;20254;-74
2022/05/18 08:31:26;;;;;;;5.23;4.90;;;23.40;36.30;;;;;;10358538;28;20226;-74
2022/05/18 08:36:31;;;;;;;5.10;4.70;;;23.60;35.90;;;;;;10357950;28;20222;-74
2022/05/18 08:41:41;;;;;;;5.30;4.90;;;23.90;35.40;;;;;;10356592;28;20229;-75
2022/05/18 08:46:48;;;;;;;4.93;4.63;;;24.20;34.80;;;;;;10350516;28;20230;-75
2022/05/18 08:52:04;;;;;;;4.57;4.27;;;24.40;35.10;;;;;;10358207;28;20233;-75
2022/05/18 08:57:17;;;;;;;4.83;4.43;;;24.70;34.20;;;;;;10350625;28;20234;-75
2022/05/18 09:02:24;;;;;;;4.50;4.20;;;24.80;33.50;;;;;;10358060;28;20229;-76
2022/05/18 09:07:35;;;;;;;4.53;4.17;;;25.00;33.50;;;;;;10357748;28;20230;-75
2022/05/18 09:12:40;;;;;;;3.60;3.40;;;25.20;33.20;;;;;;10357744;28;20226;-73
2022/05/18 09:17:54;;;;;;;3.80;3.50;;;25.40;32.90;;;;;;10356996;28;20234;-73
2022/05/18 09:23:13;;;;;;;3.70;3.40;;;25.50;31.80;;;;;;10318231;28;20242;-72
2022/05/18 09:28:27;;;;;;;3.27;3.00;;;25.70;31.40;;;;;;10357146;28;20222;-73
2022/05/18 09:33:42;;;;;;;3.60;3.30;;;25.90;30.80;;;;;;10357545;28;20233;-72
2022/05/18 09:39:02;;;;;;;3.60;2.93;;;26.10;30.40;;;;;;10357374;28;20234;-71
2022/05/18 09:44:13;;;;;;;3.13;2.93;;;26.30;30.80;;;;;;10356758;28;20241;-71
2022/05/18 09:49:23;;;;;;;3.37;3.17;;;26.50;30.00;;;;;;10357378;28;20266;-71
2022/05/18 09:54:30;;;;;;;2.97;2.77;;;26.70;29.60;;;;;;10357075;28;20230;-72
2022/05/18 09:59:39;;;;;;;3.20;2.90;;;26.90;29.70;;;;;;10356343;28;20230;-75
2022/05/18 10:10:14;;;;;;;3.40;3.10;;;27.20;29.80;;;;;;10352467;28;20693;-72
2022/05/18 10:15:29;;;;;;;3.53;3.20;;;27.30;28.70;;;;;;10357997;28;20754;-74
2022/05/18 10:20:35;;;;;;;3.73;3.30;;;27.50;28.60;;;;;;10356811;28;20222;-75
2022/05/18 10:25:51;;;;;;;3.37;3.07;;;27.60;28.50;;;;;;10342939;28;20277;-75
2022/05/18 10:30:57;;;;;;;3.03;2.77;;;27.80;28.10;;;;;;10352654;28;20252;-74
2022/05/18 10:36:11;;;;;;;3.33;2.73;;;28.00;27.80;;;;;;10359742;28;20747;-74
2022/05/18 10:41:17;;;;;;;3.03;2.80;;;28.20;27.20;;;;;;10367415;28;20710;-74
2022/05/18 10:46:29;;;;;;;2.67;2.47;;;28.30;27.30;;;;;;10372295;28;20233;-73
2022/05/18 10:51:43;;;;;;;2.83;2.63;;;28.30;26.60;;;;;;10369863;28;20782;-74
2022/05/18 10:56:49;;;;;;;2.50;2.40;;;28.40;26.80;;;;;;10361095;28;20269;-75
2022/05/18 11:01:58;;;;;;;2.70;2.50;;;28.40;26.70;;;;;;10349161;28;20755;-74
2022/05/18 11:07:05;;;;;;;3.00;2.80;;;28.40;26.50;;;;;;10368642;28;20606;-74
2022/05/18 11:12:23;;;;;;;2.90;2.70;;;28.50;27.00;;;;;;10343495;28;20243;-74
2022/05/18 11:17:38;;;;;;;3.13;2.87;;;28.50;26.00;;;;;;10332238;28;20234;-74
2022/05/18 11:22:52;;;;;;;2.87;2.30;;;28.50;25.50;;;;;;10366087;28;20236;-74
2022/05/18 11:28:06;;;;;;;2.50;2.27;;;28.50;25.40;;;;;;10361445;28;20332;-74
2022/05/18 11:33:20;;;;;;;2.40;2.20;;;28.40;25.20;;;;;;10327597;28;20258;-74
2022/05/18 11:38:55;;;;;;;2.40;2.20;;;28.50;25.20;;;;;;10327561;28;20599;-74
2022/05/18 11:44:04;;;;;;;3.43;2.20;;;28.70;25.80;;;;;;10315719;28;20747;-73
2022/05/18 11:49:16;;;;;;;3.33;2.10;;;28.70;24.70;;;;;;10367218;28;20222;-74
2022/05/18 11:54:30;;;;;;;2.00;1.90;;;28.90;24.40;;;;;;10366538;28;20267;-74
2022/05/18 11:59:56;;;;;;;2.20;2.00;;;28.90;24.30;;;;;;10351831;28;20231;-74
2022/05/18 12:05:27;;;;;;;2.37;2.17;;;29.00;24.00;;;;;;10294424;28;20246;-75
2022/05/18 12:10:38;;;;;;;2.40;2.20;;;29.10;24.30;;;;;;10357232;28;20808;-73
2022/05/18 12:15:49;;;;;;;2.07;1.93;;;29.20;23.60;;;;;;10351118;28;20326;-73
2022/05/18 12:20:59;;;;;;;2.17;1.97;;;29.20;23.10;;;;;;10351680;28;20250;-74
2022/05/18 12:26:02;;;;;;;2.40;2.20;;;29.10;23.00;;;;;;10321877;28;20231;-74
2022/05/18 12:31:07;;;;;;;2.17;1.97;;;29.00;24.70;;;;;;10316970;28;20237;-73
2022/05/18 12:36:16;;;;;;;1.93;1.83;;;29.00;23.40;;;;;;10317442;28;20254;-72
2022/05/18 12:41:26;;;;;;;2.20;2.10;;;29.10;22.90;;;;;;10317402;28;20719;-72
2022/05/18 12:46:36;;;;;;;2.13;1.97;;;29.10;24.00;;;;;;10282083;28;20318;-72
2022/05/18 12:51:53;;;;;;;2.70;2.20;;;29.10;23.10;;;;;;10277100;28;20769;-72
2022/05/18 12:57:49;;;;;;;3.23;2.13;;;29.20;23.00;;;;;;10331489;28;20244;-73
2022/05/18 13:03:01;;;;;;;2.23;2.03;;;29.20;23.80;;;;;;10318505;28;20236;-73
2022/05/18 13:08:17;;;;;;;1.90;1.80;;;29.20;22.60;;;;;;10319804;28;20745;-74
2022/05/18 13:13:25;;;;;;;2.20;2.00;;;29.20;22.40;;;;;;10323107;28;20240;-74
2022/05/18 13:18:33;;;;;;;2.60;2.40;;;29.20;22.40;;;;;;10324310;28;20650;-73
2022/05/18 13:23:43;;;;;;;2.30;2.10;;;29.20;22.70;;;;;;10324229;28;20327;-73
2022/05/18 13:28:47;;;;;;;2.10;1.90;;;29.20;22.60;;;;;;10324206;28;20231;-73
2022/05/18 13:33:58;;;;;;;3.37;2.30;;;29.20;23.20;;;;;;10325084;28;20239;-73
2022/05/18 13:39:06;;;;;;;2.10;2.00;;;29.20;22.60;;;;;;10322778;28;20231;-73
2022/05/18 13:44:09;;;;;;;2.33;2.13;;;29.10;22.80;;;;;;10325057;28;20728;-73
2022/05/18 13:49:19;;;;;;;2.70;2.50;;;29.10;22.90;;;;;;10324835;28;20245;-73
2022/05/18 13:54:27;;;;;;;2.37;2.10;;;28.90;22.50;;;;;;10323243;28;20245;-74
2022/05/18 13:59:33;;;;;;;2.10;2.00;;;28.80;23.20;;;;;;10351672;28;20258;-74
2022/05/18 14:04:40;;;;;;;3.77;2.20;;;28.80;22.70;;;;;;10360870;28;20233;-76
2022/05/18 14:10:00;;;;;;;2.43;2.23;;;28.80;22.70;;;;;;10326888;28;20245;-74
2022/05/18 14:15:20;;;;;;;2.47;2.27;;;28.90;22.80;;;;;;10323057;28;20231;-75
2022/05/18 14:20:31;;;;;;;2.50;2.30;;;28.90;23.10;;;;;;10328033;28;20312;-75
2022/05/18 14:25:54;;;;;;;2.20;2.00;;;28.90;22.50;;;;;;10359565;28;20703;-76
2022/05/18 14:31:00;;;;;;;2.00;1.90;;;28.90;22.80;;;;;;10366887;28;20261;-75
2022/05/18 14:36:20;;;;;;;2.50;2.30;;;29.00;22.50;;;;;;10361950;28;20236;-76
2022/05/18 14:41:25;;;;;;;2.20;2.03;;;29.00;21.60;;;;;;10357159;28;20232;-74
2022/05/18 14:46:30;;;;;;;3.07;2.03;;;29.00;22.40;;;;;;10369841;28;20253;-74
2022/05/18 14:51:44;;;;;;;2.43;2.07;;;29.00;22.50;;;;;;10369470;28;20276;-75
2022/05/18 14:56:51;;;;;;;2.33;2.13;;;29.00;21.90;;;;;;10370383;28;20241;-76
2022/05/18 15:01:59;;;;;;;1.90;1.80;;;29.10;22.00;;;;;;10368017;28;20230;-73
2022/05/18 15:07:09;;;;;;;2.30;2.10;;;29.10;21.70;;;;;;10325558;28;20239;-73
2022/05/18 15:12:17;;;;;;;1.97;1.87;;;29.00;21.40;;;;;;10328530;28;20241;-73
2022/05/18 15:17:27;;;;;;;2.33;2.13;;;29.00;21.50;;;;;;10327710;28;20723;-73
2022/05/18 15:22:36;;;;;;;2.00;1.90;;;29.00;21.40;;;;;;10356280;28;20232;-74
2022/05/18 15:27:39;;;;;;;2.17;1.90;;;28.90;20.90;;;;;;10307639;28;20326;-74
2022/05/18 15:32:48;;;;;;;2.47;2.00;;;28.90;21.70;;;;;;10329420;28;20234;-73
2022/05/18 15:37:54;;;;;;;2.10;2.00;;;28.90;21.00;;;;;;10336777;28;20241;-74
2022/05/18 15:42:57;;;;;;;2.10;2.00;;;28.90;20.50;;;;;;10367935;28;20643;-74
2022/05/18 15:48:01;;;;;;;2.40;2.20;;;28.90;21.40;;;;;;10367530;28;20258;-73
2022/05/18 15:53:10;;;;;;;2.80;2.60;;;28.90;21.30;;;;;;10352495;28;20239;-73
2022/05/18 15:58:13;;;;;;;3.67;2.90;;;28.90;20.60;;;;;;10344536;28;20245;-74
2022/05/18 16:03:16;;;;;;;2.80;2.60;;;28.80;20.50;;;;;;10365692;28;20683;-75
2022/05/18 16:08:23;;;;;;;3.13;2.93;;;28.80;20.60;;;;;;10364740;28;20628;-74
2022/05/18 16:13:32;;;;;;;2.93;2.73;;;28.70;20.40;;;;;;10366552;28;20234;-74
2022/05/18 16:18:36;;;;;;;3.30;2.43;;;28.70;20.50;;;;;;10366374;28;20230;-74
2022/05/18 16:23:40;;;;;;;3.07;2.57;;;28.70;20.40;;;;;;10366385;28;20245;-74
2022/05/18 16:28:45;;;;;;;2.30;2.13;;;28.70;20.40;;;;;;10365409;28;20602;-74
2022/05/18 16:33:48;;;;;;;2.30;2.10;;;28.70;20.40;;;;;;10365956;28;20230;-74
2022/05/18 16:38:53;;;;;;;2.10;2.00;;;28.60;20.40;;;;;;10366403;28;20237;-74
2022/05/18 16:44:00;;;;;;;2.30;2.20;;;28.60;20.40;;;;;;10365906;28;20273;-74
2022/05/18 16:49:04;;;;;;;2.07;1.90;;;28.60;19.70;;;;;;10403676;28;20225;-74
2022/05/18 16:54:08;;;;;;;2.00;1.80;;;28.40;20.00;;;;;;10403576;28;20238;-74
2022/05/18 16:59:12;;;;;;;1.80;1.70;;;28.40;19.70;;;;;;10403719;28;20311;-74
2022/05/18 17:04:15;;;;;;;2.37;1.67;;;28.30;20.10;;;;;;10403716;28;20950;-74
2022/05/18 17:09:19;;;;;;;1.83;1.70;;;28.30;20.10;;;;;;10403092;28;20233;-74
2022/05/18 17:14:25;;;;;;;2.00;1.70;;;28.30;19.20;;;;;;10402775;28;20229;-74
2022/05/18 17:19:29;;;;;;;1.80;1.70;;;28.20;19.40;;;;;;10403106;28;20256;-74
2022/05/18 17:24:34;;;;;;;2.80;1.73;;;28.20;19.60;;;;;;10387068;28;20758;-73
2022/05/18 17:29:37;;;;;;;1.67;1.57;;;28.10;19.20;;;;;;10361138;28;20728;-74
2022/05/18 17:34:41;;;;;;;1.60;1.50;;;28.10;19.70;;;;;;10361186;28;20238;-74
2022/05/18 17:39:45;;;;;;;1.63;1.53;;;28.10;19.60;;;;;;10364703;28;20257;-74
2022/05/18 17:44:49;;;;;;;1.70;1.60;;;28.10;19.50;;;;;;10372459;28;20237;-73
2022/05/18 17:49:53;;;;;;;1.70;1.60;;;28.10;19.70;;;;;;10372661;28;20250;-73
2022/05/18 17:54:58;;;;;;;1.27;1.27;;;28.10;19.40;;;;;;10369858;28;20232;-73
2022/05/18 18:00:01;;;;;;;2.07;1.70;;;28.00;19.00;;;;;;10372210;28;20722;-73
2022/05/18 18:05:08;;;;;;;2.30;1.80;;;27.90;19.50;;;;;;10372180;28;20241;-72
2022/05/18 18:10:16;;;;;;;1.77;1.67;;;27.70;19.60;;;;;;10372204;28;20222;-73
2022/05/18 18:15:21;;;;;;;2.07;1.80;;;27.60;19.40;;;;;;10371786;28;20238;-73
2022/05/18 18:20:30;;;;;;;1.77;1.67;;;27.40;20.20;;;;;;10371664;28;20221;-73
2022/05/18 18:25:35;;;;;;;1.87;1.77;;;27.30;19.70;;;;;;10371597;28;20231;-73
2022/05/18 18:30:38;;;;;;;2.47;1.73;;;27.20;19.70;;;;;;10371284;28;20218;-73
2022/05/18 18:35:41;;;;;;;2.23;2.00;;;27.10;19.60;;;;;;10349833;28;20240;-75
2022/05/18 18:40:46;;;;;;;3.10;1.80;;;27.00;19.60;;;;;;10352157;28;20260;-75
2022/05/18 18:56:46;;;;;;;1.77;1.67;;;26.80;19.50;;;;;;10313305;28;20988;-75
2022/05/18 19:01:49;;;;;;;2.13;1.93;;;26.70;19.50;;;;;;10309658;28;20290;-75
2022/05/18 19:06:57;;;;;;;1.87;1.70;;;26.60;19.90;;;;;;10343873;28;20288;-75
2022/05/18 19:12:06;;;;;;;1.70;1.60;;;26.60;19.70;;;;;;10323943;28;20233;-73
2022/05/18 19:17:11;;;;;;;2.00;1.90;;;26.50;19.90;;;;;;10298859;28;20315;-74
2022/05/18 19:22:18;;;;;;;2.10;1.90;;;26.40;20.10;;;;;;10307505;28;20229;-77
2022/05/18 19:27:23;;;;;;;1.97;1.83;;;26.30;20.20;;;;;;10315764;28;20223;-73
2022/05/18 19:32:27;;;;;;;2.20;1.70;;;26.20;20.40;;;;;;10304942;28;20318;-74
2022/05/18 19:37:30;;;;;;;2.30;1.70;;;26.10;20.50;;;;;;10322406;28;20234;-76
2022/05/18 19:42:38;;;;;;;1.63;1.53;;;26.00;20.40;;;;;;10342216;28;20226;-75
2022/05/18 19:47:43;;;;;;;2.80;1.57;;;25.90;20.40;;;;;;10326467;28;20234;-75
2022/05/18 19:52:46;;;;;;;2.13;1.53;;;25.80;20.70;;;;;;10301780;28;20233;-74
2022/05/18 19:57:54;;;;;;;1.70;1.60;;;25.70;20.80;;;;;;10301006;28;20326;-75
2022/05/18 20:02:57;;;;;;;1.67;1.57;;;25.70;21.20;;;;;;10304269;28;20227;-75
2022/05/18 20:08:00;;;;;;;2.23;1.63;;;25.60;21.10;;;;;;10310889;28;20219;-75
2022/05/18 20:13:06;;;;;;;4.93;1.80;;;25.50;21.00;;;;;;10313472;28;20227;-75
2022/05/18 20:18:09;;;;;;;2.17;1.60;;;25.40;21.00;;;;;;10321247;28;20239;-74
2022/05/18 20:23:13;;;;;;;1.80;1.70;;;25.20;21.10;;;;;;10320582;28;20611;-74
2022/05/18 20:28:18;;;;;;;1.93;1.70;;;25.10;21.30;;;;;;10314537;28;20231;-74
2022/05/18 20:33:24;;;;;;;1.83;1.63;;;25.10;21.30;;;;;;10337926;28;20241;-74
2022/05/18 20:38:27;;;;;;;1.70;1.60;;;24.90;21.20;;;;;;10323097;28;20229;-74
2022/05/18 20:43:32;;;;;;;2.13;1.57;;;24.80;21.50;;;;;;10322713;28;20227;-74
2022/05/18 20:48:35;;;;;;;2.03;1.83;;;24.70;21.70;;;;;;10310270;28;20258;-74
2022/05/18 20:53:39;;;;;;;3.10;1.77;;;24.60;21.50;;;;;;10316280;28;20234;-75
2022/05/18 20:58:43;;;;;;;2.30;1.90;;;24.50;21.70;;;;;;10308549;28;20231;-74
2022/05/18 21:03:47;;;;;;;3.53;1.90;;;24.30;21.90;;;;;;10312679;28;20738;-74
2022/05/18 21:08:50;;;;;;;2.17;1.97;;;24.20;21.90;;;;;;10329412;28;21766;-74
2022/05/18 21:13:56;;;;;;;1.70;1.60;;;24.10;22.20;;;;;;10319525;28;20238;-74
2022/05/18 21:19:00;;;;;;;2.00;1.90;;;23.90;22.30;;;;;;10350829;28;20226;-75
2022/05/18 21:24:03;;;;;;;1.97;1.60;;;23.80;22.10;;;;;;10321289;28;20900;-75
2022/05/18 21:29:09;;;;;;;2.70;1.83;;;23.70;22.20;;;;;;10318373;28;20242;-74
2022/05/18 21:34:13;;;;;;;2.60;1.87;;;23.60;22.30;;;;;;10352044;28;20329;-74
2022/05/18 21:39:16;;;;;;;1.77;1.60;;;23.50;22.30;;;;;;10333751;28;20234;-74
2022/05/18 21:44:25;;;;;;;2.27;1.70;;;23.30;22.30;;;;;;10312685;28;20230;-75
2022/05/18 21:49:28;;;;;;;3.07;1.90;;;23.20;22.50;;;;;;10329177;28;20231;-75
2022/05/18 21:54:31;;;;;;;1.90;1.80;;;23.10;22.40;;;;;;10309571;28;20223;-74
2022/05/18 21:59:40;;;;;;;2.30;1.97;;;22.90;22.30;;;;;;10316479;28;20231;-74
2022/05/18 22:04:43;;;;;;;2.10;1.90;;;22.90;22.80;;;;;;10310956;28;20262;-74
2022/05/18 22:09:47;;;;;;;2.07;1.87;;;22.80;22.80;;;;;;10310817;28;20235;-74
2022/05/18 22:14:52;;;;;;;2.17;1.97;;;22.70;22.70;;;;;;10308206;28;20223;-74
2022/05/18 22:19:55;;;;;;;3.33;1.63;;;22.60;22.80;;;;;;10326750;28;20227;-74
2022/05/18 22:24:58;;;;;;;2.10;1.90;;;22.50;22.70;;;;;;10307189;28;21047;-75
2022/05/18 22:30:12;;;;;;;2.13;1.73;;;22.40;22.60;;;;;;10333737;28;20278;-74
2022/05/18 22:35:16;;;;;;;2.23;2.00;;;22.30;22.50;;;;;;10342741;28;20963;-74
2022/05/18 22:40:22;;;;;;;2.10;1.90;;;22.30;22.50;;;;;;10329476;28;20223;-74
2022/05/18 22:45:28;;;;;;;2.73;1.40;;;22.20;22.20;;;;;;10317114;28;20238;-74
2022/05/18 22:50:37;;;;;;;1.60;1.50;;;22.20;21.90;;;;;;10318565;28;20267;-74
2022/05/18 22:55:40;;;;;;;1.80;1.70;;;22.00;21.80;;;;;;10343739;28;20273;-74
2022/05/18 23:00:45;;;;;;;1.80;1.70;;;21.90;21.90;;;;;;10357782;28;20230;-74
2022/05/18 23:05:49;;;;;;;1.80;1.70;;;21.80;22.00;;;;;;10331355;28;20227;-74
2022/05/18 23:10:53;;;;;;;1.90;1.80;;;21.70;21.80;;;;;;10312561;28;20328;-74
2022/05/18 23:15:59;;;;;;;2.00;1.80;;;21.60;21.70;;;;;;10313385;28;20227;-74
2022/05/18 23:21:02;;;;;;;1.77;1.67;;;21.60;21.60;;;;;;10333818;28;20770;-74
2022/05/18 23:26:08;;;;;;;2.27;1.60;;;21.50;21.60;;;;;;10315012;28;20238;-74
2022/05/18 23:31:14;;;;;;;2.03;1.77;;;21.50;21.50;;;;;;10324056;28;20257;-74
2022/05/18 23:36:21;;;;;;;1.90;1.67;;;21.30;21.20;;;;;;10351245;28;20237;-74
2022/05/18 23:41:24;;;;;;;1.60;1.50;;;21.30;21.40;;;;;;10354171;28;20714;-74
2022/05/18 23:46:33;;;;;;;2.07;1.50;;;21.20;21.40;;;;;;10353671;28;20234;-74
2022/05/18 23:51:36;;;;;;;1.60;1.50;;;21.10;21.20;;;;;;10356348;28;20230;-74
2022/05/18 23:56:44;;;;;;;1.70;1.60;;;21.00;21.20;;;;;;10349963;28;20241;-74
